• Join FlightAware (Why Join?)
  • Login
  • US Flag 
08:36AM EDT


 

Airport Tracker/Info


-or-


 

Live Flight TrackerFlight Track Log ✈ UAL752 ✈ 13-Jul-2013 ✈ KDEN - KBWI

Flight Track Log - Related Links

Times and Time Zones

All times are in EDT time to prevent confusion due to time zone crossing. See the UAL752 flight status page for this flight to view local times or setup timezone preferences in your user account.

Time Position Orientation Groundspeed Altitude Reporting Facility
EDT Latitude Longitude Course Direction KTS MPH feet Rate Location/Type
12:05PM 39.8833 -104.5500 90° East 206 237 7,200  Level Denver TRACON
12:07PM 39.8667 -104.2261 90° East  Level FlightAware Approximate
12:07PM 39.8744 -104.4439 96° East 251 289 8,900  Level Denver Center
12:08PM 39.8667 -104.0788 90° East  Level FlightAware Approximate
12:08PM 39.8739 -104.3267 90° East 298 343 10,300  Level Denver Center
12:09PM 39.8667 -103.9315 90° East  Level FlightAware Approximate
12:09PM 39.8731 -104.1978 90° East 355 409 11,000  Level Denver Center
12:10PM 39.8704 -103.7850 72° East  Level FlightAware Approximate
12:10PM 39.8719 -104.0483 91° East 381 438 13,200  Level Denver Center
12:11PM 39.8834 -103.6404 90° East  Level FlightAware Approximate
12:11PM 39.8714 -103.9033 90° East 404 465 14,600  Level Denver Center
12:12PM 39.8819 -103.7428 85° East 412 474 16,300 1,500 Climbing Denver Center
12:13PM 39.9028 -103.5711 81° East 418 481 18,000 1,500 Climbing Denver Center
12:14PM 39.9194 -103.4156 82° East 433 498 19,400 1,260 Climbing Denver Center
12:15PM 39.9378 -103.2583 81° East 439 505 20,700 1,200 Climbing Denver Center
12:16PM 39.9586 -103.0619 82° East 456 525 22,000 1,140 Climbing Denver Center
12:17PM 39.9764 -102.8942 82° East 467 537 23,100 960 Climbing Denver Center
12:18PM 39.9914 -102.7244 83° East 471 542 24,000 720 Climbing Denver Center
12:19PM 40.0089 -102.5522 82° East 480 552 24,600 780 Climbing Denver Center
12:20PM 40.0272 -102.3547 83° East 491 565 25,700 780 Climbing Denver Center
12:22PM 40.0419 -102.1858 83° East 490 564 26,500 660 Climbing Denver Center
12:23PM 40.0628 -101.9575 83° East 498 573 27,300 960 Climbing Denver Center
12:24PM 40.0808 -101.7561 83° East 500 575 28,500 960 Climbing Denver Center
12:25PM 40.0922 -101.6144 84° East 494 568 29,400 900 Climbing Denver Center
12:26PM 40.1114 -101.3897 84° East 491 565 30,400 900 Climbing Denver Center
12:27PM 40.1253 -101.2211 84° East 490 564 31,300 900 Climbing Denver Center
12:28PM 40.1419 -101.0264 84° East 484 557 32,300 960 Climbing Denver Center
12:29PM 40.1536 -100.8594 85° East 485 558 33,400 960 Climbing Denver Center
12:30PM 40.1697 -100.6683 84° East 479 551 34,400 720 Climbing Denver Center
12:31PM 40.1819 -100.5069 84° East 472 543 35,000 240 Climbing Denver Center
12:32PM 40.1942 -100.3431 84° East 475 547 35,000  Level Denver Center
12:33PM 40.2081 -100.1544 84° East 470 541 35,000  Level Denver Center
12:34PM 40.2206 -99.9914 84° East 473 544 35,000  Level Denver Center
12:35PM 40.2314 -99.8172 85° East 471 542 35,000  Level Denver Center
12:36PM 40.2467 -99.6125 84° East 472 543 35,000  Level Denver Center
12:37PM 40.2575 -99.4431 85° East 470 541 35,000  Level Denver Center
12:38PM 40.2697 -99.2731 85° East 471 542 35,000  Level Denver Center
12:39PM 40.2797 -99.1061 85° East 469 540 35,000  Level Minneapolis Center
12:40PM 40.2928 -98.9022 85° East 470 541 35,000  Level Minneapolis Center
12:41PM 40.3019 -98.7303 86° East 473 544 35,000  Level Minneapolis Center
12:42PM 40.3144 -98.5258 85° East 472 543 35,000  Level Minneapolis Center
12:44PM 40.3250 -98.3544 85° East 474 545 35,000  Level Minneapolis Center
12:45PM 40.3336 -98.1831 86° East 474 545 35,000  Level Minneapolis Center
12:46PM 40.3458 -97.9789 85° East 471 542 35,000  Level Minneapolis Center
12:47PM 40.3547 -97.8089 86° East 470 541 35,000  Level Minneapolis Center
12:48PM 40.3631 -97.6411 86° East 466 536 35,000  Level Minneapolis Center
12:49PM 40.3708 -97.4736 86° East 463 533 35,000  Level Minneapolis Center
12:50PM 40.3800 -97.2931 86° East 464 534 35,000  Level Minneapolis Center
12:51PM 40.3878 -97.1256 86° East 464 534 35,000  Level Minneapolis Center
12:52PM 40.3958 -96.9575 86° East 464 534 35,000  Level Minneapolis Center
12:53PM 40.4033 -96.7886 87° East 465 535 35,000  Level Minneapolis Center
12:54PM 40.4117 -96.5856 87° East 466 536 35,000  Level Minneapolis Center
12:55PM 40.4178 -96.4194 87° East 461 531 35,000  Level Minneapolis Center
12:56PM 40.4264 -96.2200 87° East 459 528 35,000  Level Minneapolis Center
12:57PM 40.4322 -96.0533 87° East 459 528 35,000  Level Minneapolis Center
12:58PM 40.4397 -95.8861 87° East 461 531 35,000  Level Minneapolis Center
12:59PM 40.4456 -95.7206 87° East 459 528 35,000  Level Minneapolis Center
01:00PM 40.4522 -95.5222 87° East 458 527 35,000  Level Minneapolis Center
01:01PM 40.4569 -95.3553 88° East 458 527 35,000 720 Level Minneapolis Center
01:02PM 40.4619 -95.1925 88° East 456 525 36,600 960 Climbing Minneapolis Center
01:03PM 40.4678 -95.0389 87° East 444 511 37,000 180 Climbing Minneapolis Center
01:04PM 40.4719 -94.8856 88° East 430 495 37,000  Level Minneapolis Center
01:05PM 40.4761 -94.6972 88° East 430 495 37,000  Level Minneapolis Center
01:06PM 40.4797 -94.5503 88° East 423 487 37,000  Level Minneapolis Center
01:07PM 40.4833 -94.3986 88° East 420 483 37,000  Level Minneapolis Center
01:09PM 40.4869 -94.2464 88° East 420 483 37,000  Level Minneapolis Center
01:10PM 40.4897 -94.0936 89° East 422 486 37,100  Climbing Minneapolis Center
01:11PM 40.4925 -93.9125 89° East 419 482 37,000 -60 Descending Minneapolis Center
01:12PM 40.4956 -93.7583 88° East 423 487 37,000  Level Minneapolis Center
01:13PM 40.4981 -93.6053 89° East 424 488 37,000  Level Minneapolis Center
01:13PM 40.5011 -93.5117 88° East 424 488 37,000  Level Chicago Center
01:14PM 40.5011 -93.4203 90° East 423 487 37,000  Level Kansas City Center
01:15PM 40.5022 -93.2675 89° East 422 486 37,000  Level Kansas City Center
01:16PM 40.5058 -93.1153 88° East 421 484 37,000  Level Kansas City Center
01:17PM 40.5086 -92.9458 89° East 415 478 37,000  Level Kansas City Center
01:18PM 40.5106 -92.7950 89° East 425 489 37,000  Level Kansas City Center
01:19PM 40.5133 -92.6411 89° East 430 495 37,000  Level Kansas City Center
01:20PM 40.5133 -92.4844 90° East 430 495 37,000  Level Kansas City Center
01:21PM 40.5136 -92.3028 90° East 428 493 37,000  Level Kansas City Center
01:22PM 40.5139 -92.1464 90° East 429 494 37,000  Level Kansas City Center
01:23PM 40.5139 -92.0536 90° East 429 494 37,000  Level Chicago Center
01:24PM 40.5142 -91.8975 90° East 430 495 37,000  Level Chicago Center
01:24PM 40.5136 -91.8347 91° East 431 496 37,000 60 Level Kansas City Center
01:25PM 40.5131 -91.6781 90° East 432 497 37,100  Climbing Kansas City Center
01:26PM 40.5133 -91.4894 90° East 433 498 37,000 -60 Descending Kansas City Center
01:27PM 40.5122 -91.3333 90° East 432 497 37,000  Level Kansas City Center
01:28PM 40.5114 -91.1653 90° East 433 498 37,000  Level Kansas City Center
01:29PM 40.5114 -91.1014 90° East 435 501 37,000  Level Chicago Center
01:30PM 40.5108 -90.9411 90° East 438 504 37,000  Level Chicago Center
01:31PM 40.5092 -90.7500 91° East 438 504 37,000  Level Chicago Center
01:32PM 40.5078 -90.5936 91° East 431 496 37,000  Level Chicago Center
01:33PM 40.5058 -90.4369 91° East 431 496 37,000  Level Chicago Center
01:34PM 40.5042 -90.2800 91° East 431 496 37,000  Level Chicago Center
01:35PM 40.5008 -90.1272 92° East 432 497 37,000  Level Chicago Center
01:36PM 40.4978 -89.9392 91° East 433 498 37,000  Level Chicago Center
01:37PM 40.4947 -89.7831 91° East 433 498 37,000  Level Chicago Center
01:38PM 40.4922 -89.6286 91° East 429 494 37,000  Level Chicago Center
01:39PM 40.4900 -89.4725 91° East 431 496 37,000  Level Chicago Center
01:40PM 40.4861 -89.3144 92° East 434 499 37,000  Level Chicago Center
01:41PM 40.4836 -89.1258 91° East 432 497 37,000  Level Chicago Center
01:42PM 40.4789 -88.9686 92° East 435 501 37,000  Level Chicago Center
01:43PM 40.4758 -88.8167 91° East 425 489 37,000  Level Chicago Center
01:44PM 40.4719 -88.6628 92° East 426 490 37,000  Level Chicago Center
01:45PM 40.4686 -88.5106 92° East 421 484 37,000  Level Chicago Center
01:46PM 40.4628 -88.3308 92° East 414 476 37,000  Level Chicago Center
01:47PM 40.4594 -88.1789 92° East 417 480 37,000  Level Chicago Center
01:48PM 40.4536 -88.0314 93° East 412 474 37,000  Level Chicago Center
01:49PM 40.4500 -87.8814 92° East 414 476 37,000  Level Chicago Center
01:50PM 40.4458 -87.7336 92° East 410 472 37,100  Climbing Chicago Center
01:52PM 40.4397 -87.5594 93° East 403 464 37,000 -60 Descending Chicago Center
01:53PM 40.4333 -87.4264 94° East 392 451 37,000  Level Chicago Center
01:54PM 40.4289 -87.2853 92° East 389 448 37,000  Level Chicago Center
01:55PM 40.4233 -87.1422 93° East 391 450 37,000  Level Chicago Center
01:56PM 40.4169 -86.9992 93° East 393 452 37,000  Level Chicago Center
01:57PM 40.4106 -86.8286 93° East 390 449 37,000  Level Chicago Center
01:58PM 40.4031 -86.6864 94° East 390 449 37,000  Level Chicago Center
01:59PM 40.3986 -86.5442 92° East 391 450 37,000  Level Chicago Center
02:00PM 40.3914 -86.4006 94° East 394 453 37,000  Level Chicago Center
02:01PM 40.3847 -86.2539 93° East 400 460 37,100  Climbing Chicago Center
02:02PM 40.3775 -86.1061 94° East 404 465 37,000 -60 Descending Chicago Center
02:03PM 40.3689 -85.9253 94° East 413 475 37,000  Level Chicago Center
02:04PM 40.3606 -85.7692 94° East 427 491 37,000  Level Chicago Center
02:05PM 40.3522 -85.6114 94° East 433 498 37,100  Climbing Chicago Center
02:06PM 40.3436 -85.4539 94° East 434 499 37,100 -60 Level Chicago Center
02:07PM 40.3347 -85.2967 94° East 432 497 37,000 -60 Descending Chicago Center
02:08PM 40.3267 -85.1453 94° East 421 484 37,000  Level Chicago Center
02:09PM 40.3172 -84.9939 95° East 418 481 37,000 -300 Level Chicago Center
02:10PM 40.3067 -84.8128 94° East 417 480 36,500 -780 Descending Chicago Center
02:11PM 40.2978 -84.6644 94° East 411 473 35,400 -780 Descending Chicago Center
02:12PM 40.2889 -84.5178 94° East 406 467 35,000 -240 Descending Chicago Center
02:13PM 40.2803 -84.3683 94° East 413 475 35,000  Level Chicago Center
02:14PM 40.2678 -84.2058 96° East 421 484 35,000  Level Chicago Center
02:15PM 40.2589 -84.0556 94° East 419 482 35,000  Level Chicago Center
02:16PM 40.2461 -83.8719 95° East 421 484 35,000  Level Indianapolis Center
02:17PM 40.2361 -83.7153 95° East 426 490 35,000 -60 Level Indianapolis Center
02:18PM 40.2253 -83.5572 95° East 429 494 34,900  Descending Indianapolis Center
02:19PM 40.2133 -83.3981 96° East 432 497 35,000  Climbing Indianapolis Center
02:20PM 40.2017 -83.2389 95° East 433 498 35,000 -60 Level Indianapolis Center
02:22PM 40.1897 -83.0819 96° East 428 493 34,900  Descending Indianapolis Center
02:23PM 40.1769 -82.9233 96° East 433 498 35,000  Climbing Indianapolis Center
02:24PM 40.1581 -82.7672 99° East 429 494 35,000 -60 Level Indianapolis Center
02:25PM 40.1392 -82.6114 99° East 431 496 34,900  Descending Indianapolis Center
02:26PM 40.1200 -82.4544 99° East 434 499 35,000  Climbing Indianapolis Center
02:27PM 40.1011 -82.2967 99° East 435 501 35,000  Level Indianapolis Center
02:28PM 40.0819 -82.1381 99° East 438 504 35,000 -60 Level Indianapolis Center
02:29PM 40.0617 -81.9803 99° East 438 504 34,900 -60 Descending Indianapolis Center
02:30PM 40.0422 -81.8219 99° East 439 505 34,900  Level Indianapolis Center
02:31PM 40.0194 -81.6483 100° East 443 510 35,000  Climbing Indianapolis Center
02:32PM 39.9986 -81.4883 100° East 444 511 35,000  Level Indianapolis Center
02:33PM 39.9778 -81.3286 100° East 445 512 35,000  Level Indianapolis Center
02:34PM 39.9550 -81.1572 100° East 444 511 35,000  Level Indianapolis Center
02:35PM 39.9339 -80.9972 100° East 446 513 35,000  Level Indianapolis Center
02:36PM 39.9117 -80.8375 100° East 446 513 35,000  Level Indianapolis Center
02:37PM 39.8908 -80.6789 100° East 444 511 35,000  Level Indianapolis Center
02:38PM 39.8681 -80.5192 100° East 445 512 35,000  Level Indianapolis Center
02:39PM 39.8472 -80.3611 100° East 444 511 35,000  Level Indianapolis Center
02:40PM 39.8242 -80.2025 101° East 446 513 35,000  Level Indianapolis Center
02:41PM 39.8042 -80.0483 100° East 445 512 35,000  Level Washington Center
02:42PM 39.7811 -79.8847 100° East 460 529 35,000  Level Washington Center
02:43PM 39.7575 -79.7267 101° East 460 529 35,000 -1,560 Level Washington Center
02:44PM 39.7339 -79.5608 100° East 460 529 31,900 -2,820 Descending Washington Center
02:45PM 39.7100 -79.3975 101° East 455 524 29,400 -2,400 Descending Washington Center
02:46PM 39.6875 -79.2428 101° East 449 517 27,200 -2,220 Descending Washington Center
02:47PM 39.6631 -79.0878 102° East 442 509 25,000 -1,860 Descending Washington Center
02:48PM 39.6339 -78.9436 105° East 424 488 23,500 -1,500 Descending Washington Center
02:49PM 39.5997 -78.8153 109° East 419 482 22,100 -1,500 Descending Washington Center
02:50PM 39.5700 -78.6767 106° East 408 470 20,600 -1,440 Descending Washington Center
02:51PM 39.5422 -78.5436 105° East 396 456 19,200 -1,440 Descending Washington Center
02:52PM 39.5119 -78.4078 106° East 391 450 17,800 -1,320 Descending Washington Center
02:53PM 39.4836 -78.2831 106° East 380 437 16,600 -1,260 Descending Washington Center
02:54PM 39.4550 -78.1558 106° East 374 430 15,300 -1,080 Descending Washington Center
02:55PM 39.4369 -78.0289 100° East 367 422 14,500 -900 Descending Washington Center
02:56PM 39.4394 -77.9000 89° East 356 410 13,600 -960 Descending Washington Center
02:57PM 39.4419 -77.7708 89° East 351 404 12,600 -720 Descending Washington Center
02:58PM 39.4442 -77.6394 89° East 351 404 12,200 -480 Descending Washington Center
02:59PM 39.4442 -77.5158 90° East 351 404 11,700 -600 Descending Washington Center
03:00PM 39.4461 -77.3842 89° East 351 404 11,100 -420 Descending Washington Center
03:01PM 39.4500 -77.2833 87° East 361 415 11,000 -420 Descending Potomac TRACON
03:01PM 39.4667 -77.1667 79° East 345 397 10,500 -900 Descending Potomac TRACON
03:03PM 39.4667 -77.0333 90° East 306 352 9,300 -1,260 Descending Potomac TRACON
03:03PM 39.4833 -76.9333 78° East 303 349 8,000 -1,500 Descending Potomac TRACON
03:04PM 39.4833 -76.8333 90° East 294 338 6,500 -1,440 Descending Potomac TRACON
03:06PM 39.4833 -76.7333 90° East 282 325 5,100 -840 Descending Potomac TRACON
03:07PM 39.4667 -76.6333 102° East 284 327 4,800 -600 Descending Potomac TRACON
03:08PM 39.4167 -76.5667 134° Southeast 261 300 4,000 -420 Descending Potomac TRACON
03:09PM 39.3667 -76.5167 142° Southeast 223 257 4,000  Level Potomac TRACON
03:09PM 39.3333 -76.4667 131° Southeast 221 254 4,000  Level Potomac TRACON
03:10PM 39.2833 -76.4333 153° Southeast 191 220 4,000 -240 Level Potomac TRACON
03:11PM 39.2333 -76.4167 166° South 193 222 3,600 -480 Descending Potomac TRACON
03:13PM 39.1833 -76.4333 194° South 186 214 3,000 -660 Descending Potomac TRACON
03:13PM 39.1500 -76.4667 218° Southwest 201 231 2,300 -540 Descending Potomac TRACON
03:14PM 39.1667 -76.5333 288° West 193 222 2,000 -540 Descending Potomac TRACON
03:15PM 39.1667 -76.5833 270° West 147 169 1,300 -780 Descending Potomac TRACON
03:17PM 39.1667 -76.6333 270° West 145 167 400 -840 Descending Potomac TRACON